sensor_id;sensor_type;location;lat;lon;timestamp;temperature;humidity
12039;DHT22;6080;48.818;9.526;2022-08-01T00:00:35;18.90;99.90
12039;DHT22;6080;48.818;9.526;2022-08-01T00:03:00;18.80;99.90
12039;DHT22;6080;48.818;9.526;2022-08-01T00:05:26;18.80;99.90
12039;DHT22;6080;48.818;9.526;2022-08-01T00:07:52;18.80;99.90
12039;DHT22;6080;48.818;9.526;2022-08-01T00:10:19;18.80;99.90
12039;DHT22;6080;48.818;9.526;2022-08-01T00:12:45;18.80;99.90
12039;DHT22;6080;48.818;9.526;2022-08-01T00:15:13;18.80;99.90
12039;DHT22;6080;48.818;9.526;2022-08-01T00:17:39;18.80;99.90
12039;DHT22;6080;48.818;9.526;2022-08-01T00:20:08;18.80;99.90
12039;DHT22;6080;48.818;9.526;2022-08-01T00:22:35;18.70;99.90
12039;DHT22;6080;48.818;9.526;2022-08-01T00:25:02;18.60;99.90
12039;DHT22;6080;48.818;9.526;2022-08-01T00:27:28;18.60;99.90
12039;DHT22;6080;48.818;9.526;2022-08-01T00:29:55;18.50;99.90
12039;DHT22;6080;48.818;9.526;2022-08-01T00:32:20;18.50;99.90
12039;DHT22;6080;48.818;9.526;2022-08-01T00:34:47;18.40;99.90
12039;DHT22;6080;48.818;9.526;2022-08-01T00:37:13;18.40;99.90
12039;DHT22;6080;48.818;9.526;2022-08-01T00:39:39;18.30;99.90
12039;DHT22;6080;48.818;9.526;2022-08-01T00:42:09;18.30;99.90
12039;DHT22;6080;48.818;9.526;2022-08-01T00:44:36;18.20;99.90
12039;DHT22;6080;48.818;9.526;2022-08-01T00:47:03;18.10;99.90
12039;DHT22;6080;48.818;9.526;2022-08-01T00:49:29;18.10;99.90
12039;DHT22;6080;48.818;9.526;2022-08-01T00:51:55;18.10;99.90
12039;DHT22;6080;48.818;9.526;2022-08-01T00:54:23;18.10;99.90
12039;DHT22;6080;48.818;9.526;2022-08-01T00:56:50;18.10;99.90
12039;DHT22;6080;48.818;9.526;2022-08-01T00:59:17;18.00;99.90
12039;DHT22;6080;48.818;9.526;2022-08-01T01:01:43;18.00;99.90
12039;DHT22;6080;48.818;9.526;2022-08-01T01:04:09;18.00;99.90
12039;DHT22;6080;48.818;9.526;2022-08-01T01:07:00;18.00;99.90
12039;DHT22;6080;48.818;9.526;2022-08-01T01:09:31;18.10;99.90
12039;DHT22;6080;48.818;9.526;2022-08-01T01:20:16;17.80;99.90
12039;DHT22;6080;48.818;9.526;2022-08-01T01:22:53;17.70;99.90
12039;DHT22;6080;48.818;9.526;2022-08-01T01:28:25;17.60;99.90
12039;DHT22;6080;48.818;9.526;2022-08-01T01:30:55;17.50;99.90
12039;DHT22;6080;48.818;9.526;2022-08-01T01:33:24;17.50;99.90
12039;DHT22;6080;48.818;9.526;2022-08-01T01:35:57;17.50;99.90
12039;DHT22;6080;48.818;9.526;2022-08-01T01:38:29;17.50;99.90
12039;DHT22;6080;48.818;9.526;2022-08-01T01:40:56;17.60;99.90
12039;DHT22;6080;48.818;9.526;2022-08-01T01:43:23;17.60;99.90
12039;DHT22;6080;48.818;9.526;2022-08-01T01:45:50;17.50;99.90
12039;DHT22;6080;48.818;9.526;2022-08-01T01:48:19;17.50;99.90
12039;DHT22;6080;48.818;9.526;2022-08-01T01:50:47;17.50;99.90
12039;DHT22;6080;48.818;9.526;2022-08-01T01:53:15;17.50;99.90
12039;DHT22;6080;48.818;9.526;2022-08-01T01:55:45;17.50;99.90
12039;DHT22;6080;48.818;9.526;2022-08-01T01:58:13;17.50;99.90
12039;DHT22;6080;48.818;9.526;2022-08-01T02:00:42;17.40;99.90
12039;DHT22;6080;48.818;9.526;2022-08-01T02:03:11;17.40;99.90
12039;DHT22;6080;48.818;9.526;2022-08-01T02:05:38;17.40;99.90
12039;DHT22;6080;48.818;9.526;2022-08-01T02:08:06;17.30;99.90
12039;DHT22;6080;48.818;9.526;2022-08-01T02:10:34;17.30;99.90
12039;DHT22;6080;48.818;9.526;2022-08-01T02:13:03;17.20;99.90
12039;DHT22;6080;48.818;9.526;2022-08-01T02:15:31;17.20;99.90
12039;DHT22;6080;48.818;9.526;2022-08-01T02:17:59;17.20;99.90
12039;DHT22;6080;48.818;9.526;2022-08-01T02:20:29;17.20;99.90
12039;DHT22;6080;48.818;9.526;2022-08-01T02:23:08;17.20;99.90
12039;DHT22;6080;48.818;9.526;2022-08-01T02:25:43;17.20;99.90
12039;DHT22;6080;48.818;9.526;2022-08-01T02:30:46;17.10;99.90
12039;DHT22;6080;48.818;9.526;2022-08-01T02:33:18;17.10;99.90
12039;DHT22;6080;48.818;9.526;2022-08-01T02:35:50;17.00;99.90
12039;DHT22;6080;48.818;9.526;2022-08-01T02:38:18;17.00;99.90
12039;DHT22;6080;48.818;9.526;2022-08-01T02:40:47;17.00;99.90
12039;DHT22;6080;48.818;9.526;2022-08-01T02:43:18;17.00;99.90
12039;DHT22;6080;48.818;9.526;2022-08-01T02:45:49;17.00;99.90
12039;DHT22;6080;48.818;9.526;2022-08-01T02:48:18;17.00;99.90
12039;DHT22;6080;48.818;9.526;2022-08-01T02:50:48;17.00;99.90
12039;DHT22;6080;48.818;9.526;2022-08-01T02:53:17;17.00;99.90
12039;DHT22;6080;48.818;9.526;2022-08-01T02:55:45;16.90;99.90
12039;DHT22;6080;48.818;9.526;2022-08-01T02:58:15;16.80;99.90
12039;DHT22;6080;48.818;9.526;2022-08-01T03:00:43;16.80;99.90
12039;DHT22;6080;48.818;9.526;2022-08-01T03:03:10;16.80;99.90
12039;DHT22;6080;48.818;9.526;2022-08-01T03:05:38;16.70;99.90
12039;DHT22;6080;48.818;9.526;2022-08-01T03:08:08;16.70;99.90
12039;DHT22;6080;48.818;9.526;2022-08-01T03:10:36;16.70;99.90
12039;DHT22;6080;48.818;9.526;2022-08-01T03:13:04;16.60;99.90
12039;DHT22;6080;48.818;9.526;2022-08-01T03:15:34;16.50;99.90
12039;DHT22;6080;48.818;9.526;2022-08-01T03:18:03;16.50;99.90
12039;DHT22;6080;48.818;9.526;2022-08-01T03:20:31;16.50;99.90
12039;DHT22;6080;48.818;9.526;2022-08-01T03:23:09;16.40;99.90
12039;DHT22;6080;48.818;9.526;2022-08-01T03:25:38;16.40;99.90
12039;DHT22;6080;48.818;9.526;2022-08-01T03:28:06;16.40;99.90
12039;DHT22;6080;48.818;9.526;2022-08-01T03:30:36;16.40;99.90
12039;DHT22;6080;48.818;9.526;2022-08-01T03:33:03;16.40;99.90
12039;DHT22;6080;48.818;9.526;2022-08-01T03:35:33;16.30;99.90
12039;DHT22;6080;48.818;9.526;2022-08-01T03:38:00;16.30;99.90
12039;DHT22;6080;48.818;9.526;2022-08-01T03:40:37;16.30;99.90
12039;DHT22;6080;48.818;9.526;2022-08-01T03:43:08;16.30;99.90
12039;DHT22;6080;48.818;9.526;2022-08-01T03:45:40;16.20;99.90
12039;DHT22;6080;48.818;9.526;2022-08-01T03:48:10;16.30;99.90
12039;DHT22;6080;48.818;9.526;2022-08-01T03:50:42;16.30;99.90
12039;DHT22;6080;48.818;9.526;2022-08-01T03:53:09;16.40;99.90
12039;DHT22;6080;48.818;9.526;2022-08-01T03:55:38;16.40;99.90
12039;DHT22;6080;48.818;9.526;2022-08-01T03:58:05;16.30;99.90
12039;DHT22;6080;48.818;9.526;2022-08-01T04:00:32;16.30;99.90
12039;DHT22;6080;48.818;9.526;2022-08-01T04:02:59;16.20;99.90
12039;DHT22;6080;48.818;9.526;2022-08-01T04:05:25;16.20;99.90
12039;DHT22;6080;48.818;9.526;2022-08-01T04:07:51;16.20;99.90
12039;DHT22;6080;48.818;9.526;2022-08-01T04:10:28;16.20;99.90
12039;DHT22;6080;48.818;9.526;2022-08-01T04:12:54;16.20;99.90
12039;DHT22;6080;48.818;9.526;2022-08-01T04:15:21;16.20;99.90
12039;DHT22;6080;48.818;9.526;2022-08-01T04:17:47;16.10;99.90
12039;DHT22;6080;48.818;9.526;2022-08-01T04:20:13;16.10;99.90
12039;DHT22;6080;48.818;9.526;2022-08-01T04:22:39;16.10;99.90
12039;DHT22;6080;48.818;9.526;2022-08-01T04:25:19;16.20;99.90
12039;DHT22;6080;48.818;9.526;2022-08-01T04:27:49;16.20;99.90
12039;DHT22;6080;48.818;9.526;2022-08-01T04:30:24;16.20;99.90
12039;DHT22;6080;48.818;9.526;2022-08-01T04:32:54;16.30;99.90
12039;DHT22;6080;48.818;9.526;2022-08-01T04:35:21;16.30;99.90
12039;DHT22;6080;48.818;9.526;2022-08-01T04:37:49;16.40;99.90
12039;DHT22;6080;48.818;9.526;2022-08-01T04:40:17;16.50;99.90
12039;DHT22;6080;48.818;9.526;2022-08-01T04:42:45;16.60;99.90
12039;DHT22;6080;48.818;9.526;2022-08-01T04:45:11;16.70;99.90
12039;DHT22;6080;48.818;9.526;2022-08-01T04:47:39;16.90;99.90
12039;DHT22;6080;48.818;9.526;2022-08-01T04:50:06;17.00;99.90
12039;DHT22;6080;48.818;9.526;2022-08-01T04:52:39;17.10;99.90
12039;DHT22;6080;48.818;9.526;2022-08-01T04:55:08;17.20;99.90
12039;DHT22;6080;48.818;9.526;2022-08-01T04:57:36;17.20;99.90
12039;DHT22;6080;48.818;9.526;2022-08-01T05:00:03;17.20;99.90
12039;DHT22;6080;48.818;9.526;2022-08-01T05:02:29;17.40;99.90
12039;DHT22;6080;48.818;9.526;2022-08-01T05:04:55;17.60;99.90
12039;DHT22;6080;48.818;9.526;2022-08-01T05:07:21;17.80;99.90
12039;DHT22;6080;48.818;9.526;2022-08-01T05:09:47;18.10;99.90
12039;DHT22;6080;48.818;9.526;2022-08-01T05:12:13;18.40;99.90
12039;DHT22;6080;48.818;9.526;2022-08-01T05:14:39;18.80;99.90
12039;DHT22;6080;48.818;9.526;2022-08-01T05:17:06;19.20;99.90
12039;DHT22;6080;48.818;9.526;2022-08-01T05:19:39;19.90;99.90
12039;DHT22;6080;48.818;9.526;2022-08-01T05:22:06;20.60;99.90
12039;DHT22;6080;48.818;9.526;2022-08-01T05:24:38;21.10;99.90
12039;DHT22;6080;48.818;9.526;2022-08-01T05:27:04;21.60;99.90
12039;DHT22;6080;48.818;9.526;2022-08-01T05:29:30;22.10;99.90
12039;DHT22;6080;48.818;9.526;2022-08-01T05:31:56;22.30;99.90
12039;DHT22;6080;48.818;9.526;2022-08-01T05:34:23;22.00;99.90
12039;DHT22;6080;48.818;9.526;2022-08-01T05:36:49;22.00;99.90
12039;DHT22;6080;48.818;9.526;2022-08-01T05:39:15;21.90;99.90
12039;DHT22;6080;48.818;9.526;2022-08-01T05:41:41;22.00;99.90
12039;DHT22;6080;48.818;9.526;2022-08-01T05:44:07;22.20;99.90
12039;DHT22;6080;48.818;9.526;2022-08-01T05:46:34;22.50;99.90
12039;DHT22;6080;48.818;9.526;2022-08-01T05:49:01;23.10;99.90
12039;DHT22;6080;48.818;9.526;2022-08-01T05:51:27;23.80;99.90
12039;DHT22;6080;48.818;9.526;2022-08-01T05:53:54;24.10;99.90
12039;DHT22;6080;48.818;9.526;2022-08-01T05:56:20;24.40;99.90
12039;DHT22;6080;48.818;9.526;2022-08-01T05:58:47;24.80;99.90
12039;DHT22;6080;48.818;9.526;2022-08-01T06:01:12;24.90;99.90
12039;DHT22;6080;48.818;9.526;2022-08-01T06:03:39;25.00;99.90
12039;DHT22;6080;48.818;9.526;2022-08-01T06:06:05;24.90;99.90
12039;DHT22;6080;48.818;9.526;2022-08-01T06:08:31;25.10;99.90
12039;DHT22;6080;48.818;9.526;2022-08-01T06:10:57;25.50;99.90
12039;DHT22;6080;48.818;9.526;2022-08-01T06:13:23;25.60;99.90
12039;DHT22;6080;48.818;9.526;2022-08-01T06:15:49;25.20;99.90
12039;DHT22;6080;48.818;9.526;2022-08-01T06:18:15;24.60;99.90
12039;DHT22;6080;48.818;9.526;2022-08-01T06:20:42;24.70;99.90
12039;DHT22;6080;48.818;9.526;2022-08-01T06:23:08;25.30;99.90
12039;DHT22;6080;48.818;9.526;2022-08-01T06:25:34;25.80;99.90
12039;DHT22;6080;48.818;9.526;2022-08-01T06:28:01;26.20;99.90
12039;DHT22;6080;48.818;9.526;2022-08-01T06:30:27;26.50;99.90
12039;DHT22;6080;48.818;9.526;2022-08-01T06:32:53;26.60;99.90
12039;DHT22;6080;48.818;9.526;2022-08-01T06:35:21;27.00;99.90
12039;DHT22;6080;48.818;9.526;2022-08-01T06:37:47;27.20;99.90
12039;DHT22;6080;48.818;9.526;2022-08-01T06:40:14;27.70;99.90
12039;DHT22;6080;48.818;9.526;2022-08-01T06:42:40;28.00;99.20
12039;DHT22;6080;48.818;9.526;2022-08-01T06:45:08;28.20;98.70
12039;DHT22;6080;48.818;9.526;2022-08-01T06:47:34;28.50;98.00
12039;DHT22;6080;48.818;9.526;2022-08-01T06:50:00;28.60;97.40
12039;DHT22;6080;48.818;9.526;2022-08-01T06:52:26;28.80;96.60
12039;DHT22;6080;48.818;9.526;2022-08-01T06:54:52;29.30;96.10
12039;DHT22;6080;48.818;9.526;2022-08-01T06:57:18;29.50;94.60
12039;DHT22;6080;48.818;9.526;2022-08-01T06:59:44;29.50;94.60
12039;DHT22;6080;48.818;9.526;2022-08-01T07:02:10;29.70;94.30
12039;DHT22;6080;48.818;9.526;2022-08-01T07:04:36;29.50;94.40
12039;DHT22;6080;48.818;9.526;2022-08-01T07:07:02;29.60;94.00
12039;DHT22;6080;48.818;9.526;2022-08-01T07:09:28;29.40;94.10
12039;DHT22;6080;48.818;9.526;2022-08-01T07:11:54;29.60;93.70
12039;DHT22;6080;48.818;9.526;2022-08-01T07:14:21;29.90;93.60
12039;DHT22;6080;48.818;9.526;2022-08-01T07:16:47;29.90;93.30
12039;DHT22;6080;48.818;9.526;2022-08-01T07:19:13;29.70;92.80
12039;DHT22;6080;48.818;9.526;2022-08-01T07:21:40;29.90;92.40
12039;DHT22;6080;48.818;9.526;2022-08-01T07:24:07;30.40;92.00
12039;DHT22;6080;48.818;9.526;2022-08-01T07:26:33;30.70;91.70
12039;DHT22;6080;48.818;9.526;2022-08-01T07:28:59;30.90;90.50
12039;DHT22;6080;48.818;9.526;2022-08-01T07:31:25;31.00;90.80
12039;DHT22;6080;48.818;9.526;2022-08-01T07:33:51;31.10;90.30
12039;DHT22;6080;48.818;9.526;2022-08-01T07:36:17;31.30;89.20
12039;DHT22;6080;48.818;9.526;2022-08-01T07:38:44;31.30;87.80
12039;DHT22;6080;48.818;9.526;2022-08-01T07:41:10;31.20;89.60
12039;DHT22;6080;48.818;9.526;2022-08-01T07:43:36;31.50;88.40
12039;DHT22;6080;48.818;9.526;2022-08-01T07:46:03;31.40;87.90
12039;DHT22;6080;48.818;9.526;2022-08-01T07:48:29;31.00;88.30
12039;DHT22;6080;48.818;9.526;2022-08-01T07:50:55;30.30;90.10
12039;DHT22;6080;48.818;9.526;2022-08-01T07:53:21;30.10;90.70
12039;DHT22;6080;48.818;9.526;2022-08-01T07:55:47;29.60;91.40
12039;DHT22;6080;48.818;9.526;2022-08-01T07:58:13;28.50;93.00
12039;DHT22;6080;48.818;9.526;2022-08-01T08:00:39;28.10;93.20
12039;DHT22;6080;48.818;9.526;2022-08-01T08:03:06;28.00;93.90
12039;DHT22;6080;48.818;9.526;2022-08-01T08:05:32;27.80;94.50
12039;DHT22;6080;48.818;9.526;2022-08-01T08:08:06;28.20;94.00
12039;DHT22;6080;48.818;9.526;2022-08-01T08:10:32;28.60;92.80
12039;DHT22;6080;48.818;9.526;2022-08-01T08:12:59;28.30;93.90
12039;DHT22;6080;48.818;9.526;2022-08-01T08:15:27;28.20;94.40
12039;DHT22;6080;48.818;9.526;2022-08-01T08:17:53;28.10;94.30
12039;DHT22;6080;48.818;9.526;2022-08-01T08:20:20;28.40;94.70
12039;DHT22;6080;48.818;9.526;2022-08-01T08:22:51;28.60;93.30
12039;DHT22;6080;48.818;9.526;2022-08-01T08:25:17;29.20;93.30
12039;DHT22;6080;48.818;9.526;2022-08-01T08:27:45;28.50;93.30
12039;DHT22;6080;48.818;9.526;2022-08-01T08:30:12;28.40;94.00
12039;DHT22;6080;48.818;9.526;2022-08-01T08:32:39;28.80;93.50
12039;DHT22;6080;48.818;9.526;2022-08-01T08:35:05;28.70;93.00
12039;DHT22;6080;48.818;9.526;2022-08-01T08:37:32;28.70;93.00
12039;DHT22;6080;48.818;9.526;2022-08-01T08:39:58;28.90;92.40
12039;DHT22;6080;48.818;9.526;2022-08-01T08:42:24;29.40;92.00
12039;DHT22;6080;48.818;9.526;2022-08-01T08:44:50;29.30;91.70
12039;DHT22;6080;48.818;9.526;2022-08-01T08:47:16;28.80;92.90
12039;DHT22;6080;48.818;9.526;2022-08-01T08:49:43;28.90;93.10
12039;DHT22;6080;48.818;9.526;2022-08-01T08:52:10;28.80;93.20
12039;DHT22;6080;48.818;9.526;2022-08-01T08:54:38;28.90;93.10
12039;DHT22;6080;48.818;9.526;2022-08-01T08:57:04;29.60;92.40
12039;DHT22;6080;48.818;9.526;2022-08-01T08:59:31;29.30;91.90
12039;DHT22;6080;48.818;9.526;2022-08-01T09:01:57;28.30;92.80
12039;DHT22;6080;48.818;9.526;2022-08-01T09:04:24;27.90;93.70
12039;DHT22;6080;48.818;9.526;2022-08-01T09:06:52;27.90;93.80
12039;DHT22;6080;48.818;9.526;2022-08-01T09:09:18;28.00;93.50
12039;DHT22;6080;48.818;9.526;2022-08-01T09:11:44;27.40;94.10
12039;DHT22;6080;48.818;9.526;2022-08-01T09:14:14;27.20;95.00
12039;DHT22;6080;48.818;9.526;2022-08-01T09:16:44;26.90;95.20
12039;DHT22;6080;48.818;9.526;2022-08-01T09:19:19;26.40;96.10
12039;DHT22;6080;48.818;9.526;2022-08-01T09:21:59;27.00;96.30
12039;DHT22;6080;48.818;9.526;2022-08-01T09:24:26;28.10;94.40
12039;DHT22;6080;48.818;9.526;2022-08-01T09:26:53;28.90;93.60
12039;DHT22;6080;48.818;9.526;2022-08-01T09:29:29;29.40;92.80
12039;DHT22;6080;48.818;9.526;2022-08-01T09:31:55;29.10;93.20
12039;DHT22;6080;48.818;9.526;2022-08-01T09:34:27;28.60;92.50
12039;DHT22;6080;48.818;9.526;2022-08-01T09:36:58;28.10;93.30
12039;DHT22;6080;48.818;9.526;2022-08-01T09:39:54;27.90;93.20
12039;DHT22;6080;48.818;9.526;2022-08-01T09:44:47;26.90;94.40
12039;DHT22;6080;48.818;9.526;2022-08-01T09:47:13;27.00;95.40
12039;DHT22;6080;48.818;9.526;2022-08-01T09:49:40;27.40;94.80
12039;DHT22;6080;48.818;9.526;2022-08-01T09:52:26;28.40;93.60
12039;DHT22;6080;48.818;9.526;2022-08-01T09:54:58;29.10;92.00
12039;DHT22;6080;48.818;9.526;2022-08-01T09:57:25;28.70;92.10
12039;DHT22;6080;48.818;9.526;2022-08-01T09:59:56;28.70;92.20
12039;DHT22;6080;48.818;9.526;2022-08-01T10:02:37;28.90;92.30
12039;DHT22;6080;48.818;9.526;2022-08-01T10:05:05;29.30;91.90
12039;DHT22;6080;48.818;9.526;2022-08-01T10:07:31;29.70;90.40
12039;DHT22;6080;48.818;9.526;2022-08-01T10:10:14;29.50;90.80
12039;DHT22;6080;48.818;9.526;2022-08-01T10:12:41;28.80;90.70
12039;DHT22;6080;48.818;9.526;2022-08-01T10:15:08;29.10;91.70
12039;DHT22;6080;48.818;9.526;2022-08-01T10:17:37;28.90;91.10
12039;DHT22;6080;48.818;9.526;2022-08-01T10:20:04;28.90;91.10
12039;DHT22;6080;48.818;9.526;2022-08-01T10:22:31;28.40;91.00
12039;DHT22;6080;48.818;9.526;2022-08-01T10:25:02;28.00;92.10
12039;DHT22;6080;48.818;9.526;2022-08-01T10:27:29;27.90;92.70
12039;DHT22;6080;48.818;9.526;2022-08-01T10:30:02;28.40;92.00
12039;DHT22;6080;48.818;9.526;2022-08-01T10:32:30;28.90;90.90
12039;DHT22;6080;48.818;9.526;2022-08-01T10:34:56;28.70;90.60
12039;DHT22;6080;48.818;9.526;2022-08-01T10:37:25;28.90;90.20
12039;DHT22;6080;48.818;9.526;2022-08-01T10:39:53;29.00;90.40
12039;DHT22;6080;48.818;9.526;2022-08-01T10:42:19;28.40;90.60
12039;DHT22;6080;48.818;9.526;2022-08-01T10:44:46;28.60;91.10
12039;DHT22;6080;48.818;9.526;2022-08-01T10:47:15;29.50;90.40
12039;DHT22;6080;48.818;9.526;2022-08-01T10:49:58;30.80;88.60
12039;DHT22;6080;48.818;9.526;2022-08-01T10:52:27;31.00;83.70
12039;DHT22;6080;48.818;9.526;2022-08-01T10:55:07;29.90;86.50
12039;DHT22;6080;48.818;9.526;2022-08-01T10:57:47;29.30;88.30
12039;DHT22;6080;48.818;9.526;2022-08-01T11:00:18;29.00;89.00
12039;DHT22;6080;48.818;9.526;2022-08-01T11:03:00;29.10;90.30
12039;DHT22;6080;48.818;9.526;2022-08-01T11:05:29;29.70;86.90
12039;DHT22;6080;48.818;9.526;2022-08-01T11:07:58;29.60;86.60
12039;DHT22;6080;48.818;9.526;2022-08-01T11:10:39;29.60;85.90
12039;DHT22;6080;48.818;9.526;2022-08-01T11:13:05;30.30;84.40
12039;DHT22;6080;48.818;9.526;2022-08-01T11:15:34;31.20;82.80
12039;DHT22;6080;48.818;9.526;2022-08-01T11:18:28;31.30;81.80
12039;DHT22;6080;48.818;9.526;2022-08-01T11:20:58;31.80;80.10
12039;DHT22;6080;48.818;9.526;2022-08-01T11:23:26;32.30;80.10
12039;DHT22;6080;48.818;9.526;2022-08-01T11:28:37;32.40;78.00
12039;DHT22;6080;48.818;9.526;2022-08-01T11:44:10;31.30;78.00
12039;DHT22;6080;48.818;9.526;2022-08-01T11:46:56;30.90;79.40
12039;DHT22;6080;48.818;9.526;2022-08-01T11:57:31;32.40;78.50
12039;DHT22;6080;48.818;9.526;2022-08-01T11:59:59;33.90;73.10
12039;DHT22;6080;48.818;9.526;2022-08-01T12:02:27;32.80;73.40
12039;DHT22;6080;48.818;9.526;2022-08-01T12:05:04;31.80;75.00
12039;DHT22;6080;48.818;9.526;2022-08-01T12:07:32;31.00;76.50
12039;DHT22;6080;48.818;9.526;2022-08-01T12:10:06;30.60;78.60
12039;DHT22;6080;48.818;9.526;2022-08-01T12:12:41;30.70;78.70
12039;DHT22;6080;48.818;9.526;2022-08-01T12:15:09;31.30;77.80
12039;DHT22;6080;48.818;9.526;2022-08-01T12:20:05;31.50;76.70
12039;DHT22;6080;48.818;9.526;2022-08-01T12:22:31;31.70;76.20
12039;DHT22;6080;48.818;9.526;2022-08-01T12:25:07;31.30;77.00
12039;DHT22;6080;48.818;9.526;2022-08-01T12:27:35;30.80;77.10
12039;DHT22;6080;48.818;9.526;2022-08-01T12:30:01;30.50;77.70
12039;DHT22;6080;48.818;9.526;2022-08-01T12:32:32;30.50;78.10
12039;DHT22;6080;48.818;9.526;2022-08-01T12:37:38;31.90;75.30
12039;DHT22;6080;48.818;9.526;2022-08-01T12:40:22;33.10;71.70
12039;DHT22;6080;48.818;9.526;2022-08-01T12:43:04;33.70;71.40
12039;DHT22;6080;48.818;9.526;2022-08-01T12:47:59;36.00;63.80
12039;DHT22;6080;48.818;9.526;2022-08-01T12:50:30;35.50;63.10
12039;DHT22;6080;48.818;9.526;2022-08-01T12:52:57;34.00;65.20
12039;DHT22;6080;48.818;9.526;2022-08-01T12:55:25;32.70;68.00
12039;DHT22;6080;48.818;9.526;2022-08-01T12:58:11;31.70;69.60
12039;DHT22;6080;48.818;9.526;2022-08-01T13:00:39;32.50;70.80
12039;DHT22;6080;48.818;9.526;2022-08-01T13:03:14;34.30;67.20
12039;DHT22;6080;48.818;9.526;2022-08-01T13:08:12;34.00;65.00
12039;DHT22;6080;48.818;9.526;2022-08-01T13:10:38;32.60;68.50
12039;DHT22;6080;48.818;9.526;2022-08-01T13:13:05;31.20;70.80
12039;DHT22;6080;48.818;9.526;2022-08-01T13:15:33;30.30;73.00
12039;DHT22;6080;48.818;9.526;2022-08-01T13:18:23;29.70;77.00
12039;DHT22;6080;48.818;9.526;2022-08-01T13:20:49;29.50;76.40
12039;DHT22;6080;48.818;9.526;2022-08-01T13:23:19;29.40;78.10
12039;DHT22;6080;48.818;9.526;2022-08-01T13:25:51;29.50;78.10
12039;DHT22;6080;48.818;9.526;2022-08-01T13:28:25;31.30;74.50
12039;DHT22;6080;48.818;9.526;2022-08-01T13:31:01;33.30;71.90
12039;DHT22;6080;48.818;9.526;2022-08-01T13:33:43;35.70;66.00
12039;DHT22;6080;48.818;9.526;2022-08-01T13:36:09;35.60;62.10
12039;DHT22;6080;48.818;9.526;2022-08-01T13:38:35;33.80;65.90
12039;DHT22;6080;48.818;9.526;2022-08-01T13:41:20;32.90;67.40
12039;DHT22;6080;48.818;9.526;2022-08-01T13:43:45;32.40;69.90
12039;DHT22;6080;48.818;9.526;2022-08-01T13:46:11;32.70;68.50
12039;DHT22;6080;48.818;9.526;2022-08-01T13:48:37;32.30;68.40
12039;DHT22;6080;48.818;9.526;2022-08-01T13:51:03;31.90;69.20
12039;DHT22;6080;48.818;9.526;2022-08-01T13:53:29;32.00;70.10
12039;DHT22;6080;48.818;9.526;2022-08-01T13:55:55;32.10;69.30
12039;DHT22;6080;48.818;9.526;2022-08-01T13:58:21;31.60;70.50
12039;DHT22;6080;48.818;9.526;2022-08-01T14:00:47;31.10;71.30
12039;DHT22;6080;48.818;9.526;2022-08-01T14:03:13;30.80;71.50
12039;DHT22;6080;48.818;9.526;2022-08-01T14:05:39;31.90;70.50
12039;DHT22;6080;48.818;9.526;2022-08-01T14:08:05;33.20;66.60
12039;DHT22;6080;48.818;9.526;2022-08-01T14:10:31;33.40;65.90
12039;DHT22;6080;48.818;9.526;2022-08-01T14:12:58;32.70;66.80
12039;DHT22;6080;48.818;9.526;2022-08-01T14:15:24;31.90;68.60
12039;DHT22;6080;48.818;9.526;2022-08-01T14:17:50;31.90;70.00
12039;DHT22;6080;48.818;9.526;2022-08-01T14:20:16;33.00;66.90
12039;DHT22;6080;48.818;9.526;2022-08-01T14:22:47;34.30;65.50
12039;DHT22;6080;48.818;9.526;2022-08-01T14:25:13;35.10;61.20
12039;DHT22;6080;48.818;9.526;2022-08-01T14:27:39;34.20;63.00
12039;DHT22;6080;48.818;9.526;2022-08-01T14:30:08;32.90;64.50
12039;DHT22;6080;48.818;9.526;2022-08-01T14:32:34;33.40;64.50
12039;DHT22;6080;48.818;9.526;2022-08-01T14:35:04;33.80;63.60
12039;DHT22;6080;48.818;9.526;2022-08-01T14:37:31;33.80;64.90
12039;DHT22;6080;48.818;9.526;2022-08-01T14:39:58;34.30;63.20
12039;DHT22;6080;48.818;9.526;2022-08-01T14:42:25;34.50;63.00
12039;DHT22;6080;48.818;9.526;2022-08-01T14:44:51;34.10;63.10
12039;DHT22;6080;48.818;9.526;2022-08-01T14:47:17;33.10;64.50
12039;DHT22;6080;48.818;9.526;2022-08-01T14:49:43;32.10;66.20
12039;DHT22;6080;48.818;9.526;2022-08-01T14:52:09;31.40;67.40
12039;DHT22;6080;48.818;9.526;2022-08-01T14:54:35;31.30;68.20
12039;DHT22;6080;48.818;9.526;2022-08-01T14:57:00;31.20;70.30
12039;DHT22;6080;48.818;9.526;2022-08-01T14:59:26;30.80;70.30
12039;DHT22;6080;48.818;9.526;2022-08-01T15:01:52;30.80;70.30
12039;DHT22;6080;48.818;9.526;2022-08-01T15:04:18;31.40;70.50
12039;DHT22;6080;48.818;9.526;2022-08-01T15:06:44;32.30;68.70
12039;DHT22;6080;48.818;9.526;2022-08-01T15:09:10;32.20;68.70
12039;DHT22;6080;48.818;9.526;2022-08-01T15:11:36;32.20;67.90
12039;DHT22;6080;48.818;9.526;2022-08-01T15:14:02;32.60;67.50
12039;DHT22;6080;48.818;9.526;2022-08-01T15:16:47;33.70;64.20
12039;DHT22;6080;48.818;9.526;2022-08-01T15:19:13;35.10;61.40
12039;DHT22;6080;48.818;9.526;2022-08-01T15:21:40;35.20;60.50
12039;DHT22;6080;48.818;9.526;2022-08-01T15:24:06;34.20;62.40
12039;DHT22;6080;48.818;9.526;2022-08-01T15:26:32;33.40;64.40
12039;DHT22;6080;48.818;9.526;2022-08-01T15:28:58;32.10;66.50
12039;DHT22;6080;48.818;9.526;2022-08-01T15:31:24;30.90;69.70
12039;DHT22;6080;48.818;9.526;2022-08-01T15:33:50;30.10;71.20
12039;DHT22;6080;48.818;9.526;2022-08-01T15:36:16;29.70;72.90
12039;DHT22;6080;48.818;9.526;2022-08-01T15:38:42;29.60;73.40
12039;DHT22;6080;48.818;9.526;2022-08-01T15:41:08;30.10;72.70
12039;DHT22;6080;48.818;9.526;2022-08-01T15:43:33;31.50;69.70
12039;DHT22;6080;48.818;9.526;2022-08-01T15:46:00;32.20;67.70
12039;DHT22;6080;48.818;9.526;2022-08-01T15:48:27;31.90;67.30
12039;DHT22;6080;48.818;9.526;2022-08-01T15:50:53;31.10;69.30
12039;DHT22;6080;48.818;9.526;2022-08-01T15:53:19;30.50;69.50
12039;DHT22;6080;48.818;9.526;2022-08-01T15:55:45;30.00;70.10
12039;DHT22;6080;48.818;9.526;2022-08-01T15:58:11;29.80;71.20
12039;DHT22;6080;48.818;9.526;2022-08-01T16:00:37;29.60;71.60
12039;DHT22;6080;48.818;9.526;2022-08-01T16:03:03;29.80;71.60
12039;DHT22;6080;48.818;9.526;2022-08-01T16:05:29;30.70;69.60
12039;DHT22;6080;48.818;9.526;2022-08-01T16:07:55;31.60;68.00
12039;DHT22;6080;48.818;9.526;2022-08-01T16:10:21;32.00;66.40
12039;DHT22;6080;48.818;9.526;2022-08-01T16:12:47;31.90;66.10
12039;DHT22;6080;48.818;9.526;2022-08-01T16:15:13;32.20;65.70
12039;DHT22;6080;48.818;9.526;2022-08-01T16:17:39;31.50;66.20
12039;DHT22;6080;48.818;9.526;2022-08-01T16:20:05;31.00;67.70
12039;DHT22;6080;48.818;9.526;2022-08-01T16:22:32;30.60;68.50
12039;DHT22;6080;48.818;9.526;2022-08-01T16:24:59;30.20;69.00
12039;DHT22;6080;48.818;9.526;2022-08-01T16:27:25;30.00;69.90
12039;DHT22;6080;48.818;9.526;2022-08-01T16:29:52;29.70;70.80
12039;DHT22;6080;48.818;9.526;2022-08-01T16:32:18;29.60;71.00
12039;DHT22;6080;48.818;9.526;2022-08-01T16:34:43;29.60;71.30
12039;DHT22;6080;48.818;9.526;2022-08-01T16:37:10;29.60;72.10
12039;DHT22;6080;48.818;9.526;2022-08-01T16:39:35;29.50;72.60
12039;DHT22;6080;48.818;9.526;2022-08-01T16:42:01;29.40;73.40